LGAV Airport Information

Runway Information
Runway 03L Length 12467 ft width 148 ft
Elevation 255 ft Threshold 984 ft Heading 37
Runway 21R Length 12467 ft Width 148 ft
Elevation 282 ft Threshold 984 ft Heading 217
Runway 03R Length 13123 ft width 148 ft
Elevation 271 ft Threshold 984 ft Heading 37
Runway 21L Length 13123 ft Width 148 ft
Elevation 303 ft Threshold 984 ft Heading 217
Airport Frequencies
Type APP Name ATHINAI AP Frequency 126.575 MHZ
Type ARR Name ATHINAI AR Frequency 132.975 MHZ
Type ATIS Name ATIS Frequency 136.125 MHZ
Type CLD Name CLNC DEL Frequency 118.675 MHZ
Type DEP Name ATHINAI DE Frequency 128.95 MHZ
Type DIR Name ATHINAI DI Frequency 121.4 MHZ
Type GND Name GND Frequency 121.75 MHZ
Type INFO Name INFO Frequency 136.025 MHZ
Type PMSV Name ATHINAI VO Frequency 127.8 MHZ
Type RDO Name RDO Frequency 563.7 MHZ
Type TWR Name TWR Frequency 136.275 MHZ
Airport Navaids
Type VOR-DME Name Eleftherios Venizelos Frequency 109600 KHZ
Type VOR-DME Name Eleftherios Venizelos Frequency 117500 KHZ
Airport Weather Information & NOTAM
ADDS - METARS form results

(0408 UTC 25 March 2019)
Data provider http://aviationweather.gov/metar/data/
 
METAR text: LGAV 250350Z 02006KT 9999 FEW030 07/M02 Q1017 NOSIG
Conditions at: LGAV (ATHENS/ELEF-VEN , GR) observed 0350 UTC 25 March 2019
Temperature: 7.0°C (45°F)
Dewpoint: -2.0°C (28°F) [RH = 53%]
Pressure (altimeter): 30.03 inches Hg (1017.0 mb)
Winds: from the NNE (20 degrees) at 7 MPH (6 knots; 3.1 m/s)
Visibility: 6 or more miles (10+ km)
Ceiling: at least 12,000 feet AGL
Clouds: few clouds at 3000 feet AGL
Weather: no significant weather observed at this time

METAR text: LGAV 250320Z VRB03KT 9999 FEW030 09/M02 Q1017 NOSIG
Conditions at: LGAV (ATHENS/ELEF-VEN , GR) observed 0320 UTC 25 March 2019
Temperature: 9.0°C (48°F)
Dewpoint: -2.0°C (28°F) [RH = 46%]
Pressure (altimeter): 30.03 inches Hg (1017.0 mb)
Winds: variable direction winds at 3 MPH (3 knots; 1.5 m/s)
Visibility: 6 or more miles (10+ km)
Ceiling: at least 12,000 feet AGL
Clouds: few clouds at 3000 feet AGL
Weather: no significant weather observed at this time

Forecast for: AMD
Text: TAF AMD LGAV 250025Z 2500/2524 02014KT 9999 FEW030
Forecast period: 0000 UTC 25 March 2019 to 0000 UTC 26 March 2019
Forecast type: FROM: standard forecast or significant change
Winds: from the NNE (20 degrees) at 16 MPH (14 knots; 7.2 m/s)
Visibility: 6 or more miles 10+ km)
Ceiling: at least 12,000 feet AGL
Clouds: few clouds at 3000 feet AGL
Weather: no significant weather forecast for this period